createdAt,value
2024-02-08T00:04:05.194Z,11.33
2024-02-08T00:09:12.983Z,10.27
2024-02-08T00:14:18.269Z,13.47
2024-02-08T00:19:23.447Z,10.53
2024-02-08T00:24:32.224Z,12.07
2024-02-08T00:29:37.707Z,12.87
2024-02-08T00:34:46.491Z,12.63
2024-02-08T00:39:54.582Z,11.80
2024-02-08T00:45:00.036Z,12.60
2024-02-08T00:50:08.347Z,11.13
2024-02-08T00:55:17.496Z,14.40
2024-02-08T01:00:24.530Z,12.27
2024-02-08T01:05:29.984Z,14.53
2024-02-08T01:10:38.014Z,12.83
2024-02-08T01:15:43.530Z,10.93
2024-02-08T01:20:48.710Z,13.47
2024-02-08T01:25:56.866Z,9.73
2024-02-08T01:31:02.794Z,10.83
2024-02-08T01:36:08.763Z,8.60
2024-02-08T01:41:17.823Z,10.57
2024-02-08T01:46:25.488Z,6.43
2024-02-08T01:51:31.540Z,8.50
2024-02-08T01:56:43.387Z,8.87
2024-02-08T02:01:52.948Z,10.63
2024-02-08T02:07:01.579Z,6.63
2024-02-08T02:12:15.913Z,8.10
2024-02-08T02:17:27.862Z,7.70
2024-02-08T02:22:36.350Z,8.40
2024-02-08T02:27:44.354Z,9.07
2024-02-08T02:32:51.429Z,10.20
2024-02-08T02:38:04.173Z,10.73
2024-02-08T02:43:11.452Z,11.70
2024-02-08T02:48:17.428Z,10.57
2024-02-08T02:53:25.904Z,11.60
2024-02-08T02:58:33.130Z,15.30
2024-02-08T03:03:42.478Z,12.73
2024-02-08T03:08:51.589Z,16.23
2024-02-08T03:13:57.210Z,16.07
2024-02-08T03:19:03.171Z,18.37
2024-02-08T03:24:13.445Z,18.67
2024-02-08T03:29:19.672Z,18.57
2024-02-08T03:34:36.103Z,17.93
2024-02-08T03:39:48.454Z,22.07
2024-02-08T03:44:55.809Z,23.73
2024-02-08T03:50:05.372Z,17.63
2024-02-08T03:55:14.424Z,21.03
2024-02-08T04:00:29.718Z,18.87
2024-02-08T04:05:44.187Z,21.63
2024-02-08T04:11:04.422Z,19.77
2024-02-08T04:16:22.690Z,17.60
2024-02-08T04:21:42.936Z,17.20
2024-02-08T04:27:03.654Z,17.13
2024-02-08T04:32:22.257Z,16.23
2024-02-08T04:37:39.899Z,20.67
2024-02-08T04:43:00.224Z,18.47
2024-02-08T04:48:17.765Z,15.80
2024-02-08T04:53:35.359Z,16.03
2024-02-08T04:59:07.046Z,15.53
2024-02-08T05:04:20.453Z,16.07
2024-02-08T05:09:26.190Z,15.63
2024-02-08T05:14:39.396Z,13.60
2024-02-08T05:19:47.840Z,14.60
2024-02-08T05:24:56.777Z,16.97
2024-02-08T05:30:04.790Z,13.10
2024-02-08T05:35:15.958Z,15.60
2024-02-08T05:40:23.876Z,13.83
2024-02-08T05:45:34.738Z,14.23
2024-02-08T05:50:40.009Z,11.80
2024-02-08T05:55:49.608Z,15.90
2024-02-08T06:01:07.248Z,13.97
2024-02-08T06:06:30.718Z,13.97
2024-02-08T06:11:38.614Z,11.10
2024-02-08T06:16:52.679Z,10.20
2024-02-08T06:22:09.631Z,12.97
2024-02-08T06:27:18.590Z,10.87
2024-02-08T06:32:45.542Z,12.53
2024-02-08T06:38:01.825Z,16.67
2024-02-08T06:43:24.287Z,9.80
2024-02-08T06:48:44.632Z,13.37
2024-02-08T06:54:05.489Z,9.60
2024-02-08T06:59:23.071Z,13.50
2024-02-08T07:04:50.400Z,11.80
2024-02-08T07:10:09.832Z,10.90
2024-02-08T07:15:30.660Z,12.40
2024-02-08T07:20:51.113Z,10.27
2024-02-08T07:26:09.082Z,11.27
2024-02-08T07:31:26.629Z,8.47
2024-02-08T07:36:46.753Z,8.63
2024-02-08T07:41:58.706Z,9.20
2024-02-08T07:47:05.384Z,9.70
2024-02-08T07:52:21.436Z,8.57
2024-02-08T07:57:33.044Z,8.10
2024-02-08T08:02:41.294Z,10.27
2024-02-08T08:08:01.319Z,8.00
2024-02-08T08:13:08.046Z,9.43
2024-02-08T08:18:25.730Z,8.40
2024-02-08T08:23:33.509Z,10.97
2024-02-08T08:28:54.451Z,11.87
2024-02-08T08:34:27.145Z,8.80
2024-02-08T08:39:53.331Z,12.67
2024-02-08T08:45:06.405Z,13.87
2024-02-08T08:50:23.542Z,20.60
2024-02-08T08:55:32.812Z,12.30
2024-02-08T09:00:40.059Z,7.90
2024-02-08T09:05:48.111Z,8.40
2024-02-08T09:10:58.209Z,8.67
2024-02-08T09:16:26.711Z,9.20
2024-02-08T09:21:40.517Z,8.23
2024-02-08T09:26:58.097Z,7.70
2024-02-08T09:32:17.592Z,5.87
2024-02-08T09:37:23.276Z,4.80
2024-02-08T09:42:39.569Z,7.60
2024-02-08T09:47:54.070Z,6.57
2024-02-08T09:53:08.962Z,4.67
2024-02-08T09:58:36.339Z,6.10
2024-02-08T10:03:46.417Z,6.73
2024-02-08T10:09:09.930Z,6.77
2024-02-08T10:14:26.825Z,5.40
2024-02-08T10:19:45.558Z,9.30
2024-02-08T10:25:03.743Z,6.93
2024-02-08T10:30:21.245Z,8.73
2024-02-08T10:35:30.935Z,7.53
2024-02-08T10:40:36.817Z,5.70
2024-02-08T10:45:45.841Z,6.20
2024-02-08T10:50:54.761Z,8.63
2024-02-08T10:56:01.217Z,7.23
2024-02-08T11:01:34.636Z,10.43
2024-02-08T11:06:56.196Z,8.23
2024-02-08T11:12:10.188Z,10.87
2024-02-08T11:17:22.265Z,10.03
2024-02-08T11:22:41.988Z,10.97
2024-02-08T11:27:50.801Z,10.87
2024-02-08T11:33:07.265Z,8.93
2024-02-08T11:38:22.597Z,12.40
2024-02-08T11:43:30.725Z,7.73
2024-02-08T11:48:43.243Z,7.93
2024-02-08T11:53:52.857Z,9.33
2024-02-08T11:59:21.741Z,10.43
2024-02-08T12:04:40.965Z,10.50
2024-02-08T12:09:50.899Z,8.53
2024-02-08T12:15:01.456Z,11.43
2024-02-08T12:20:11.839Z,10.23
2024-02-08T12:25:20.537Z,8.93
2024-02-08T12:30:29.712Z,11.73
2024-02-08T12:35:42.623Z,12.67
2024-02-08T12:40:53.491Z,10.53
2024-02-08T12:45:58.976Z,9.77
2024-02-08T12:51:15.211Z,12.50
2024-02-08T12:56:23.724Z,10.53
2024-02-08T13:01:38.356Z,9.43
2024-02-08T13:06:47.555Z,13.03
2024-02-08T13:11:52.786Z,12.00
2024-02-08T13:17:00.980Z,11.67
2024-02-08T13:22:10.895Z,9.60
2024-02-08T13:27:27.398Z,12.20
2024-02-08T13:32:38.613Z,15.57
2024-02-08T13:37:55.961Z,11.20
2024-02-08T13:48:18.084Z,11.60
2024-02-08T13:53:29.786Z,10.10
2024-02-08T13:58:45.790Z,8.57
2024-02-08T14:03:56.315Z,8.73
2024-02-08T14:09:21.093Z,9.70
2024-02-08T14:14:32.321Z,7.93
2024-02-08T14:19:38.662Z,11.93
2024-02-08T14:24:58.341Z,9.77
2024-02-08T14:30:06.890Z,11.93
2024-02-08T14:35:18.144Z,13.67
2024-02-08T14:40:30.413Z,11.10
2024-02-08T14:45:39.630Z,12.70
2024-02-08T14:50:54.598Z,13.27
2024-02-08T14:56:02.828Z,11.80
2024-02-08T15:01:13.671Z,11.30
2024-02-08T15:06:38.530Z,11.27
2024-02-08T15:11:59.171Z,16.90
2024-02-08T15:17:09.293Z,12.50
2024-02-08T15:22:42.452Z,10.47
2024-02-08T15:27:58.638Z,16.10
2024-02-08T15:33:22.366Z,10.43
2024-02-08T15:39:02.160Z,12.33
2024-02-08T15:44:17.114Z,12.90
2024-02-08T15:49:30.546Z,14.17
2024-02-08T15:54:39.791Z,15.47
2024-02-08T15:59:48.310Z,15.03
2024-02-08T16:04:56.829Z,11.13
2024-02-08T16:10:21.754Z,12.87
2024-02-08T16:15:46.205Z,13.47
2024-02-08T16:20:55.610Z,13.70
2024-02-08T16:26:12.672Z,14.90
2024-02-08T16:31:33.245Z,10.47
2024-02-08T16:36:46.556Z,11.13
2024-02-08T16:41:58.057Z,15.00
2024-02-08T16:53:05.496Z,16.73
2024-02-08T17:54:33.655Z,14.43
2024-02-08T17:59:39.459Z,12.03
2024-02-08T18:04:45.144Z,15.93
2024-02-08T18:10:12.637Z,14.07
2024-02-08T18:15:26.080Z,13.03
2024-02-08T18:20:35.314Z,9.77
2024-02-08T18:25:47.021Z,9.10
2024-02-08T18:30:57.455Z,11.53
2024-02-08T18:36:06.430Z,11.77
2024-02-08T18:41:14.196Z,12.47
2024-02-08T18:46:26.264Z,11.77
2024-02-08T18:51:32.070Z,13.07
2024-02-08T18:56:39.951Z,10.60
2024-02-08T19:01:54.085Z,12.23
2024-02-08T19:07:06.798Z,12.07
2024-02-08T19:12:19.506Z,11.83
2024-02-08T19:17:33.186Z,13.63
2024-02-08T19:22:49.931Z,12.63
2024-02-08T19:28:00.655Z,14.97
2024-02-08T19:33:11.770Z,12.70
2024-02-08T19:38:19.639Z,12.43
2024-02-08T19:43:36.896Z,12.67
2024-02-08T19:48:43.709Z,12.30
2024-02-08T19:53:51.645Z,11.93
2024-02-08T19:59:04.000Z,14.37
2024-02-08T20:04:15.532Z,22.17
2024-02-08T20:09:23.269Z,14.30
2024-02-08T20:14:32.681Z,15.63
2024-02-08T20:19:40.137Z,15.83
2024-02-08T20:24:47.137Z,13.20
2024-02-08T20:29:58.941Z,15.77
2024-02-08T20:35:05.608Z,14.27
2024-02-08T20:40:12.895Z,12.57
2024-02-08T20:45:23.513Z,15.83
2024-02-08T20:50:28.672Z,15.50
2024-02-08T20:55:36.756Z,14.13
2024-02-08T21:00:48.062Z,16.63
2024-02-08T21:05:56.153Z,13.40
2024-02-08T21:11:02.825Z,15.27
2024-02-08T21:16:14.435Z,15.30
2024-02-08T21:21:22.083Z,16.37
2024-02-08T21:26:27.683Z,15.37
2024-02-08T21:31:35.672Z,14.80
2024-02-08T21:36:44.897Z,14.07
2024-02-08T21:41:50.659Z,15.07
2024-02-08T21:46:58.600Z,15.90
2024-02-08T21:52:08.985Z,16.70
2024-02-08T21:57:16.406Z,15.30
2024-02-08T22:02:24.272Z,17.60
2024-02-08T22:07:29.945Z,16.40
2024-02-08T22:12:35.316Z,16.87
2024-02-08T22:17:43.107Z,16.90
2024-02-08T22:22:49.197Z,15.10
2024-02-08T22:27:54.394Z,14.13
2024-02-08T22:33:02.893Z,16.00
2024-02-08T22:38:09.142Z,15.23
2024-02-08T22:43:19.049Z,14.93
2024-02-08T22:48:26.925Z,15.23
2024-02-08T22:53:32.240Z,12.87
2024-02-08T22:58:38.043Z,14.33
2024-02-08T23:03:46.307Z,14.10
2024-02-08T23:08:51.560Z,12.03
2024-02-08T23:13:56.753Z,15.87
2024-02-08T23:19:06.370Z,11.50
2024-02-08T23:24:11.751Z,11.87
2024-02-08T23:29:17.084Z,12.40
2024-02-08T23:34:28.389Z,14.37
2024-02-08T23:39:34.330Z,17.17
2024-02-08T23:44:40.012Z,13.83
2024-02-08T23:49:47.991Z,13.60
2024-02-08T23:54:53.477Z,13.90
2024-02-08T23:59:58.787Z,14.17
